THA404 WSSS-VTBS
Flight info
| Callsign | THA404 |
|---|---|
| Flight time | 1h 58m |
| Altitude | 40000 |
| Route | N0479F400 VMR9B VMR B469 VPK M751 VKB M644 ALUMO Y12 ALEMI TUMGA1C |
| Aircraft | B772/H-SDE2E3FGHIJ5LORVWXY/LB1D1 |
Departure
| Time | 2026-05-05 04:44 |
|---|---|
| Airport | Singapore Changi Airport (WSSS) |
Arrival
| Time | 2026-05-05 06:42 |
|---|---|
| Airport | Suvarnabhumi Airport (VTBS) |
| Time | Latitude | Longitude | Altitude | Speed | Heading |
|---|---|---|---|---|---|
| 2026-05-05 04:23 | 1.35703 | 103.99284 | 29 ft | 0 kts | 142° |
| 2026-05-05 04:38 | 1.35718 | 103.99271 | 29 ft | 4 kts | 138° |
| 2026-05-05 04:38 | 1.35738 | 103.99252 | 29 ft | 4 kts | 129° |
| 2026-05-05 04:38 | 1.35752 | 103.99231 | 28 ft | 4 kts | 109° |
| 2026-05-05 04:38 | 1.35754 | 103.99209 | 26 ft | 3 kts | 49° |
| 2026-05-05 04:39 | 1.35752 | 103.99206 | 26 ft | 0 kts | 41° |
| 2026-05-05 04:41 | 1.35767 | 103.99219 | 28 ft | 8 kts | 41° |
| 2026-05-05 04:41 | 1.35826 | 103.99291 | 29 ft | 18 kts | 53° |
| 2026-05-05 04:41 | 1.35881 | 103.99404 | 29 ft | 18 kts | 89° |
| 2026-05-05 04:41 | 1.35852 | 103.99528 | 30 ft | 18 kts | 88° |
| 2026-05-05 04:42 | 1.35953 | 103.99595 | 30 ft | 18 kts | 22° |
| 2026-05-05 04:42 | 1.36071 | 103.99644 | 28 ft | 18 kts | 22° |
| 2026-05-05 04:42 | 1.36189 | 103.99693 | 29 ft | 18 kts | 22° |
| 2026-05-05 04:42 | 1.36228 | 103.99792 | 30 ft | 18 kts | 111° |
| 2026-05-05 04:43 | 1.36158 | 103.99883 | 31 ft | 15 kts | 180° |
| 2026-05-05 04:43 | 1.36033 | 103.99831 | 31 ft | 34 kts | 202° |
| 2026-05-05 04:43 | 1.35580 | 103.99639 | 34 ft | 110 kts | 203° |
| 2026-05-05 04:43 | 1.34667 | 103.99251 | 106 ft | 169 kts | 203° |
| 2026-05-05 04:44 | 1.33613 | 103.98796 | 979 ft | 165 kts | 203° |
| 2026-05-05 04:44 | 1.32541 | 103.98346 | 1738 ft | 171 kts | 202° |
| 2026-05-05 04:44 | 1.31361 | 103.97879 | 2076 ft | 192 kts | 202° |
| 2026-05-05 04:44 | 1.30100 | 103.97360 | 2672 ft | 200 kts | 203° |
| 2026-05-05 04:45 | 1.28747 | 103.96807 | 3038 ft | 223 kts | 203° |
| 2026-05-05 04:45 | 1.27231 | 103.96179 | 3409 ft | 242 kts | 204° |
| 2026-05-05 04:45 | 1.25654 | 103.95498 | 4043 ft | 253 kts | 204° |
| 2026-05-05 04:45 | 1.23978 | 103.94810 | 4526 ft | 264 kts | 197° |
| 2026-05-05 04:46 | 1.22130 | 103.94719 | 4865 ft | 283 kts | 162° |
| 2026-05-05 04:46 | 1.20521 | 103.95791 | 5714 ft | 279 kts | 132° |
| 2026-05-05 04:46 | 1.19259 | 103.97265 | 6373 ft | 282 kts | 131° |
| 2026-05-05 04:46 | 1.17891 | 103.98684 | 7112 ft | 284 kts | 135° |
| 2026-05-05 04:47 | 1.16623 | 104.00179 | 7716 ft | 285 kts | 117° |
| 2026-05-05 04:47 | 1.16154 | 104.02109 | 8353 ft | 291 kts | 89° |
| 2026-05-05 04:47 | 1.16574 | 104.04076 | 9133 ft | 292 kts | 66° |
| 2026-05-05 04:47 | 1.17710 | 104.05754 | 9788 ft | 296 kts | 43° |
| 2026-05-05 04:48 | 1.19489 | 104.06811 | 10286 ft | 307 kts | 17° |
| 2026-05-05 04:48 | 1.21697 | 104.06975 | 10463 ft | 331 kts | 352° |
| 2026-05-05 04:48 | 1.24036 | 104.06499 | 10633 ft | 356 kts | 347° |
| 2026-05-05 04:48 | 1.26521 | 104.05887 | 10924 ft | 378 kts | 346° |
| 2026-05-05 04:49 | 1.29110 | 104.05232 | 11593 ft | 389 kts | 346° |
| 2026-05-05 04:49 | 1.31729 | 104.04578 | 12458 ft | 395 kts | 347° |
| 2026-05-05 04:49 | 1.34412 | 104.03923 | 13464 ft | 399 kts | 347° |
| 2026-05-05 04:49 | 1.37128 | 104.03273 | 14200 ft | 403 kts | 348° |
| 2026-05-05 04:50 | 1.39873 | 104.02622 | 14839 ft | 409 kts | 348° |
| 2026-05-05 04:50 | 1.42649 | 104.01904 | 15514 ft | 415 kts | 344° |
| 2026-05-05 04:50 | 1.45417 | 104.01013 | 16196 ft | 419 kts | 343° |
| 2026-05-05 04:50 | 1.48207 | 104.00095 | 16907 ft | 424 kts | 343° |
| 2026-05-05 04:51 | 1.51031 | 103.99168 | 17600 ft | 428 kts | 343° |
| 2026-05-05 04:51 | 1.53847 | 103.98249 | 18256 ft | 433 kts | 343° |
| 2026-05-05 04:51 | 1.56723 | 103.97314 | 18838 ft | 437 kts | 343° |
| 2026-05-05 04:51 | 1.59632 | 103.96371 | 19440 ft | 441 kts | 343° |
| 2026-05-05 04:52 | 1.62563 | 103.95422 | 20061 ft | 445 kts | 343° |
| 2026-05-05 04:52 | 1.65525 | 103.94462 | 20663 ft | 449 kts | 343° |
| 2026-05-05 04:52 | 1.68507 | 103.93497 | 21261 ft | 452 kts | 343° |
| 2026-05-05 04:52 | 1.71517 | 103.92522 | 21826 ft | 456 kts | 343° |
| 2026-05-05 04:53 | 1.74570 | 103.91626 | 22372 ft | 459 kts | 348° |
| 2026-05-05 04:53 | 1.77723 | 103.91026 | 22875 ft | 462 kts | 354° |
| 2026-05-05 04:53 | 1.80934 | 103.90761 | 23378 ft | 464 kts | 358° |
| 2026-05-05 04:53 | 1.84171 | 103.90585 | 23774 ft | 467 kts | 358° |
| 2026-05-05 04:54 | 1.87379 | 103.90413 | 24158 ft | 470 kts | 358° |
| 2026-05-05 04:54 | 1.90651 | 103.90229 | 24568 ft | 472 kts | 358° |
| 2026-05-05 04:54 | 1.93938 | 103.90034 | 24942 ft | 475 kts | 358° |
| 2026-05-05 04:54 | 1.97250 | 103.89831 | 25284 ft | 478 kts | 358° |
| 2026-05-05 04:55 | 2.00578 | 103.89622 | 25607 ft | 481 kts | 358° |
| 2026-05-05 04:55 | 2.03927 | 103.89409 | 25933 ft | 484 kts | 358° |
| 2026-05-05 04:55 | 2.06157 | 103.89267 | 26143 ft | 485 kts | 358° |
| 2026-05-05 04:55 | 2.09543 | 103.89052 | 26449 ft | 488 kts | 358° |
| 2026-05-05 04:56 | 2.12942 | 103.88836 | 26764 ft | 490 kts | 358° |
| 2026-05-05 04:56 | 2.16365 | 103.88619 | 27049 ft | 493 kts | 358° |
| 2026-05-05 04:56 | 2.19794 | 103.88403 | 27327 ft | 495 kts | 358° |
| 2026-05-05 04:56 | 2.23239 | 103.88185 | 27597 ft | 497 kts | 358° |
| 2026-05-05 04:57 | 2.26707 | 103.87965 | 27857 ft | 499 kts | 358° |
| 2026-05-05 04:57 | 2.30184 | 103.87745 | 28101 ft | 501 kts | 358° |
| 2026-05-05 04:57 | 2.33629 | 103.87518 | 28331 ft | 503 kts | 356° |
| 2026-05-05 04:57 | 2.37148 | 103.87020 | 28520 ft | 507 kts | 349° |
| 2026-05-05 04:58 | 2.40533 | 103.86166 | 28721 ft | 509 kts | 344° |
| 2026-05-05 04:58 | 2.43887 | 103.84991 | 28949 ft | 512 kts | 338° |
| 2026-05-05 04:58 | 2.47146 | 103.83510 | 29203 ft | 515 kts | 336° |
| 2026-05-05 04:58 | 2.50409 | 103.81970 | 29510 ft | 518 kts | 336° |
| 2026-05-05 04:59 | 2.53674 | 103.80433 | 29803 ft | 519 kts | 336° |
| 2026-05-05 04:59 | 2.56956 | 103.78905 | 30063 ft | 521 kts | 336° |
| 2026-05-05 04:59 | 2.60260 | 103.77385 | 30306 ft | 522 kts | 336° |
| 2026-05-05 04:59 | 2.63564 | 103.75875 | 30623 ft | 521 kts | 336° |
| 2026-05-05 05:00 | 2.66862 | 103.74370 | 31004 ft | 519 kts | 336° |
| 2026-05-05 05:00 | 2.70103 | 103.72889 | 31385 ft | 517 kts | 336° |
| 2026-05-05 05:00 | 2.73372 | 103.71395 | 31756 ft | 516 kts | 336° |
| 2026-05-05 05:00 | 2.76643 | 103.69923 | 32137 ft | 514 kts | 336° |
| 2026-05-05 05:01 | 2.79908 | 103.68471 | 32505 ft | 513 kts | 337° |
| 2026-05-05 05:01 | 2.83172 | 103.67024 | 32903 ft | 511 kts | 337° |
| 2026-05-05 05:01 | 2.86418 | 103.65579 | 33292 ft | 509 kts | 336° |
| 2026-05-05 05:01 | 2.89647 | 103.64138 | 33671 ft | 508 kts | 336° |
| 2026-05-05 05:02 | 2.92874 | 103.62697 | 34023 ft | 507 kts | 336° |
| 2026-05-05 05:02 | 2.96090 | 103.61262 | 34345 ft | 505 kts | 336° |
| 2026-05-05 05:02 | 2.99260 | 103.59849 | 34663 ft | 504 kts | 336° |
| 2026-05-05 05:02 | 3.02462 | 103.58420 | 34978 ft | 503 kts | 336° |
| 2026-05-05 05:03 | 3.05658 | 103.56994 | 35298 ft | 503 kts | 336° |
| 2026-05-05 05:03 | 3.08852 | 103.55569 | 35635 ft | 502 kts | 337° |
| 2026-05-05 05:03 | 3.12036 | 103.54147 | 35964 ft | 501 kts | 337° |
| 2026-05-05 05:03 | 3.15214 | 103.52729 | 36307 ft | 500 kts | 337° |
| 2026-05-05 05:04 | 3.18391 | 103.51306 | 36662 ft | 499 kts | 337° |
| 2026-05-05 05:04 | 3.21555 | 103.49881 | 36996 ft | 498 kts | 337° |
| 2026-05-05 05:04 | 3.24705 | 103.48459 | 37366 ft | 496 kts | 337° |
| 2026-05-05 05:04 | 3.27854 | 103.47037 | 37773 ft | 494 kts | 337° |
| 2026-05-05 05:05 | 3.30984 | 103.45625 | 38133 ft | 493 kts | 337° |
| 2026-05-05 05:05 | 3.34112 | 103.44214 | 38454 ft | 492 kts | 337° |
| 2026-05-05 05:05 | 3.37198 | 103.42823 | 38712 ft | 492 kts | 337° |
| 2026-05-05 05:05 | 3.40327 | 103.41426 | 38982 ft | 491 kts | 338° |
| 2026-05-05 05:06 | 3.43481 | 103.40119 | 39294 ft | 489 kts | 340° |
| 2026-05-05 05:06 | 3.46639 | 103.38875 | 39597 ft | 487 kts | 340° |
| 2026-05-05 05:06 | 3.49788 | 103.37659 | 39812 ft | 488 kts | 340° |
| 2026-05-05 05:07 | 3.56147 | 103.35192 | 39878 ft | 489 kts | 340° |
| 2026-05-05 05:07 | 3.62449 | 103.32706 | 39879 ft | 484 kts | 340° |
| 2026-05-05 05:08 | 3.68684 | 103.30226 | 39888 ft | 484 kts | 340° |
| 2026-05-05 05:08 | 3.74952 | 103.27730 | 39885 ft | 484 kts | 340° |
| 2026-05-05 05:09 | 3.81221 | 103.25234 | 39887 ft | 485 kts | 340° |
| 2026-05-05 05:09 | 3.87471 | 103.22747 | 39884 ft | 486 kts | 340° |
| 2026-05-05 05:10 | 3.93770 | 103.20240 | 39886 ft | 487 kts | 340° |
| 2026-05-05 05:10 | 4.00069 | 103.17733 | 39884 ft | 487 kts | 340° |
| 2026-05-05 05:11 | 4.06383 | 103.15219 | 39877 ft | 487 kts | 340° |
| 2026-05-05 05:11 | 4.12690 | 103.12707 | 39881 ft | 488 kts | 340° |
| 2026-05-05 05:12 | 4.18961 | 103.10210 | 39883 ft | 488 kts | 340° |
| 2026-05-05 05:12 | 4.25268 | 103.07698 | 39882 ft | 488 kts | 340° |
| 2026-05-05 05:13 | 4.31583 | 103.05182 | 39882 ft | 488 kts | 340° |
| 2026-05-05 05:13 | 4.37891 | 103.02668 | 39885 ft | 487 kts | 340° |
| 2026-05-05 05:14 | 4.44190 | 103.00158 | 39886 ft | 487 kts | 340° |
| 2026-05-05 05:14 | 4.50496 | 102.97644 | 39890 ft | 488 kts | 339° |
| 2026-05-05 05:15 | 4.56806 | 102.95128 | 39891 ft | 488 kts | 339° |
| 2026-05-05 05:15 | 4.63121 | 102.92610 | 39890 ft | 489 kts | 339° |
| 2026-05-05 05:16 | 4.69436 | 102.90091 | 39893 ft | 489 kts | 339° |
| 2026-05-05 05:16 | 4.75756 | 102.87569 | 39891 ft | 489 kts | 339° |
| 2026-05-05 05:17 | 4.82077 | 102.85046 | 39895 ft | 489 kts | 339° |
| 2026-05-05 05:17 | 4.88401 | 102.82524 | 39883 ft | 489 kts | 339° |
| 2026-05-05 05:18 | 4.94692 | 102.80031 | 39889 ft | 489 kts | 340° |
| 2026-05-05 05:18 | 5.01044 | 102.77517 | 39885 ft | 490 kts | 340° |
| 2026-05-05 05:19 | 5.07381 | 102.75006 | 39890 ft | 489 kts | 339° |
| 2026-05-05 05:19 | 5.13699 | 102.72499 | 39884 ft | 488 kts | 339° |
| 2026-05-05 05:20 | 5.20008 | 102.69996 | 39878 ft | 487 kts | 339° |
| 2026-05-05 05:20 | 5.26299 | 102.67460 | 39878 ft | 486 kts | 339° |
| 2026-05-05 05:21 | 5.32534 | 102.64920 | 39881 ft | 486 kts | 339° |
| 2026-05-05 05:21 | 5.38815 | 102.62393 | 39883 ft | 486 kts | 339° |
| 2026-05-05 05:22 | 5.45078 | 102.59919 | 39882 ft | 486 kts | 339° |
| 2026-05-05 05:22 | 5.51380 | 102.57422 | 39874 ft | 486 kts | 339° |
| 2026-05-05 05:23 | 5.57673 | 102.54917 | 39874 ft | 486 kts | 339° |
| 2026-05-05 05:23 | 5.63961 | 102.52398 | 39880 ft | 486 kts | 340° |
| 2026-05-05 05:24 | 5.70252 | 102.49874 | 39878 ft | 487 kts | 339° |
| 2026-05-05 05:24 | 5.76544 | 102.47351 | 39878 ft | 487 kts | 339° |
| 2026-05-05 05:25 | 5.82842 | 102.44826 | 39877 ft | 487 kts | 339° |
| 2026-05-05 05:25 | 5.89141 | 102.42300 | 39877 ft | 487 kts | 339° |
| 2026-05-05 05:26 | 5.95394 | 102.39792 | 39883 ft | 487 kts | 339° |
| 2026-05-05 05:26 | 6.01678 | 102.37271 | 39881 ft | 485 kts | 339° |
| 2026-05-05 05:27 | 6.07946 | 102.34754 | 39883 ft | 484 kts | 339° |
| 2026-05-05 05:27 | 6.17435 | 102.31352 | 39885 ft | 481 kts | 348° |
| 2026-05-05 05:28 | 6.23986 | 102.30367 | 39888 ft | 479 kts | 355° |
| 2026-05-05 05:28 | 6.30616 | 102.29595 | 39884 ft | 480 kts | 354° |
| 2026-05-05 05:29 | 6.37251 | 102.28805 | 39875 ft | 480 kts | 354° |
| 2026-05-05 05:29 | 6.43900 | 102.28046 | 39876 ft | 481 kts | 354° |
| 2026-05-05 05:30 | 6.50546 | 102.27286 | 39878 ft | 481 kts | 354° |
| 2026-05-05 05:30 | 6.57203 | 102.26520 | 39874 ft | 481 kts | 354° |
| 2026-05-05 05:31 | 6.63769 | 102.25762 | 39872 ft | 480 kts | 354° |
| 2026-05-05 05:31 | 6.70417 | 102.24994 | 39873 ft | 480 kts | 354° |
| 2026-05-05 05:32 | 6.77062 | 102.24226 | 39874 ft | 480 kts | 354° |
| 2026-05-05 05:32 | 6.83707 | 102.23458 | 39876 ft | 481 kts | 354° |
| 2026-05-05 05:33 | 6.90357 | 102.22689 | 39869 ft | 481 kts | 354° |
| 2026-05-05 05:33 | 6.97009 | 102.21920 | 39873 ft | 481 kts | 354° |
| 2026-05-05 05:34 | 7.03620 | 102.21155 | 39871 ft | 481 kts | 354° |
| 2026-05-05 05:34 | 7.10270 | 102.20385 | 39872 ft | 481 kts | 354° |
| 2026-05-05 05:35 | 7.16919 | 102.19616 | 39874 ft | 480 kts | 354° |
| 2026-05-05 05:35 | 7.23550 | 102.18848 | 39873 ft | 479 kts | 354° |
| 2026-05-05 05:36 | 7.30182 | 102.18080 | 39875 ft | 479 kts | 354° |
| 2026-05-05 05:36 | 7.36806 | 102.17313 | 39875 ft | 479 kts | 354° |
| 2026-05-05 05:37 | 7.43384 | 102.16550 | 39875 ft | 479 kts | 354° |
| 2026-05-05 05:37 | 7.50008 | 102.15782 | 39874 ft | 478 kts | 354° |
| 2026-05-05 05:38 | 7.56632 | 102.15014 | 39873 ft | 478 kts | 354° |
| 2026-05-05 05:38 | 7.63246 | 102.14247 | 39875 ft | 478 kts | 354° |
| 2026-05-05 05:39 | 7.69858 | 102.13480 | 39871 ft | 478 kts | 354° |
| 2026-05-05 05:39 | 7.76469 | 102.12713 | 39871 ft | 478 kts | 354° |
| 2026-05-05 05:40 | 7.83078 | 102.11945 | 39872 ft | 478 kts | 354° |
| 2026-05-05 05:40 | 7.89684 | 102.11178 | 39870 ft | 478 kts | 354° |
| 2026-05-05 05:41 | 7.96260 | 102.10414 | 39872 ft | 478 kts | 354° |
| 2026-05-05 05:41 | 8.02874 | 102.09647 | 39872 ft | 478 kts | 355° |
| 2026-05-05 05:42 | 8.09495 | 102.09017 | 39871 ft | 478 kts | 356° |
| 2026-05-05 05:42 | 8.15012 | 102.08560 | 39871 ft | 478 kts | 356° |
| 2026-05-05 05:43 | 8.21645 | 102.08002 | 39872 ft | 478 kts | 356° |
| 2026-05-05 05:43 | 8.28274 | 102.07426 | 39871 ft | 478 kts | 356° |
| 2026-05-05 05:44 | 8.34902 | 102.06841 | 39866 ft | 477 kts | 356° |
| 2026-05-05 05:44 | 8.41519 | 102.06257 | 39868 ft | 477 kts | 356° |
| 2026-05-05 05:45 | 8.48139 | 102.05673 | 39872 ft | 477 kts | 356° |
| 2026-05-05 05:45 | 8.54716 | 102.05093 | 39873 ft | 477 kts | 356° |
| 2026-05-05 05:46 | 8.61329 | 102.04509 | 39875 ft | 477 kts | 356° |
| 2026-05-05 05:46 | 8.67937 | 102.03926 | 39870 ft | 476 kts | 355° |
| 2026-05-05 05:47 | 8.74556 | 102.03342 | 39873 ft | 476 kts | 355° |
| 2026-05-05 05:47 | 8.81154 | 102.02759 | 39871 ft | 476 kts | 356° |
| 2026-05-05 05:48 | 8.87752 | 102.02176 | 39867 ft | 476 kts | 355° |
| 2026-05-05 05:48 | 8.94344 | 102.01594 | 39878 ft | 475 kts | 355° |
| 2026-05-05 05:49 | 9.00893 | 102.01015 | 39872 ft | 476 kts | 355° |
| 2026-05-05 05:49 | 9.07493 | 102.00431 | 39873 ft | 475 kts | 355° |
| 2026-05-05 05:50 | 9.14081 | 101.99848 | 39874 ft | 475 kts | 355° |
| 2026-05-05 05:50 | 9.20661 | 101.99265 | 39874 ft | 475 kts | 355° |
| 2026-05-05 05:51 | 9.27243 | 101.98682 | 39881 ft | 475 kts | 355° |
| 2026-05-05 05:51 | 9.33840 | 101.98102 | 39873 ft | 476 kts | 355° |
| 2026-05-05 05:52 | 9.40400 | 101.97530 | 39875 ft | 476 kts | 355° |
| 2026-05-05 05:52 | 9.46998 | 101.96955 | 39874 ft | 476 kts | 355° |
| 2026-05-05 05:53 | 9.53598 | 101.96379 | 39874 ft | 476 kts | 355° |
| 2026-05-05 05:53 | 9.60212 | 101.95801 | 39875 ft | 476 kts | 355° |
| 2026-05-05 05:54 | 9.66805 | 101.95225 | 39870 ft | 475 kts | 355° |
| 2026-05-05 05:54 | 9.73347 | 101.94653 | 39876 ft | 474 kts | 355° |
| 2026-05-05 05:55 | 9.79924 | 101.94077 | 39872 ft | 474 kts | 355° |
| 2026-05-05 05:55 | 9.86487 | 101.93503 | 39874 ft | 473 kts | 355° |
| 2026-05-05 05:56 | 9.93060 | 101.92927 | 39875 ft | 473 kts | 355° |
| 2026-05-05 05:56 | 9.99628 | 101.92352 | 39874 ft | 474 kts | 355° |
| 2026-05-05 05:57 | 10.06209 | 101.91775 | 39881 ft | 475 kts | 354° |
| 2026-05-05 05:57 | 10.12763 | 101.91201 | 39875 ft | 476 kts | 355° |
| 2026-05-05 05:58 | 10.19374 | 101.90621 | 39880 ft | 476 kts | 354° |
| 2026-05-05 05:58 | 10.25985 | 101.90041 | 39875 ft | 477 kts | 354° |
| 2026-05-05 05:59 | 10.32590 | 101.89461 | 39878 ft | 476 kts | 354° |
| 2026-05-05 05:59 | 10.39208 | 101.88880 | 39873 ft | 477 kts | 355° |
| 2026-05-05 06:00 | 10.45803 | 101.88300 | 39881 ft | 479 kts | 355° |
| 2026-05-05 06:00 | 10.52457 | 101.87715 | 39882 ft | 480 kts | 355° |
| 2026-05-05 06:01 | 10.59123 | 101.87129 | 39876 ft | 481 kts | 355° |
| 2026-05-05 06:01 | 10.65793 | 101.86543 | 39879 ft | 481 kts | 355° |
| 2026-05-05 06:02 | 10.72421 | 101.85959 | 39875 ft | 481 kts | 355° |
| 2026-05-05 06:02 | 10.79064 | 101.85109 | 39879 ft | 482 kts | 348° |
| 2026-05-05 06:03 | 10.85611 | 101.83603 | 39882 ft | 483 kts | 347° |
| 2026-05-05 06:03 | 10.92180 | 101.82047 | 39880 ft | 485 kts | 347° |
| 2026-05-05 06:04 | 10.98771 | 101.80516 | 39879 ft | 485 kts | 347° |
| 2026-05-05 06:04 | 11.05363 | 101.79007 | 39879 ft | 485 kts | 347° |
| 2026-05-05 06:05 | 11.11908 | 101.77513 | 39880 ft | 485 kts | 346° |
| 2026-05-05 06:05 | 11.18503 | 101.76007 | 39878 ft | 485 kts | 346° |
| 2026-05-05 06:06 | 11.25092 | 101.74499 | 39878 ft | 484 kts | 346° |
| 2026-05-05 06:06 | 11.31673 | 101.72992 | 39879 ft | 484 kts | 346° |
| 2026-05-05 06:07 | 11.38253 | 101.71485 | 39882 ft | 484 kts | 346° |
| 2026-05-05 06:07 | 11.44801 | 101.69984 | 39879 ft | 484 kts | 346° |
| 2026-05-05 06:08 | 11.51380 | 101.68476 | 39878 ft | 484 kts | 346° |
| 2026-05-05 06:08 | 11.57960 | 101.66967 | 39885 ft | 483 kts | 346° |
| 2026-05-05 06:09 | 11.64513 | 101.65463 | 39875 ft | 481 kts | 346° |
| 2026-05-05 06:09 | 11.70986 | 101.63977 | 39879 ft | 479 kts | 346° |
| 2026-05-05 06:10 | 11.77493 | 101.62482 | 39881 ft | 478 kts | 346° |
| 2026-05-05 06:10 | 11.83992 | 101.60988 | 39890 ft | 478 kts | 346° |
| 2026-05-05 06:11 | 11.90490 | 101.59494 | 39880 ft | 478 kts | 346° |
| 2026-05-05 06:11 | 11.96983 | 101.58000 | 39883 ft | 478 kts | 346° |
| 2026-05-05 06:12 | 12.03476 | 101.56505 | 39879 ft | 479 kts | 346° |
| 2026-05-05 06:12 | 12.09945 | 101.55016 | 39886 ft | 479 kts | 346° |
| 2026-05-05 06:13 | 12.16452 | 101.53517 | 39884 ft | 479 kts | 346° |
| 2026-05-05 06:13 | 12.22981 | 101.52012 | 39884 ft | 480 kts | 346° |
| 2026-05-05 06:14 | 12.29466 | 101.50516 | 39889 ft | 481 kts | 346° |
| 2026-05-05 06:14 | 12.35979 | 101.49013 | 39706 ft | 477 kts | 346° |
| 2026-05-05 06:15 | 12.39222 | 101.48264 | 39337 ft | 480 kts | 346° |
| 2026-05-05 06:15 | 12.42494 | 101.47508 | 38908 ft | 483 kts | 346° |
| 2026-05-05 06:15 | 12.45793 | 101.46746 | 38435 ft | 487 kts | 346° |
| 2026-05-05 06:15 | 12.49113 | 101.45979 | 37939 ft | 490 kts | 346° |
| 2026-05-05 06:16 | 12.52441 | 101.45210 | 37524 ft | 491 kts | 346° |
| 2026-05-05 06:16 | 12.55789 | 101.44436 | 37092 ft | 493 kts | 346° |
| 2026-05-05 06:16 | 12.59104 | 101.43669 | 36781 ft | 495 kts | 346° |
| 2026-05-05 06:16 | 12.62499 | 101.42846 | 36204 ft | 496 kts | 344° |
| 2026-05-05 06:17 | 12.65786 | 101.41896 | 35374 ft | 497 kts | 342° |
| 2026-05-05 06:17 | 12.69099 | 101.40847 | 34416 ft | 500 kts | 341° |
| 2026-05-05 06:17 | 12.72423 | 101.39765 | 33341 ft | 504 kts | 341° |
| 2026-05-05 06:17 | 12.75775 | 101.38676 | 32204 ft | 507 kts | 341° |
| 2026-05-05 06:18 | 12.79150 | 101.37597 | 31066 ft | 509 kts | 342° |
| 2026-05-05 06:18 | 12.82538 | 101.36531 | 30218 ft | 507 kts | 342° |
| 2026-05-05 06:18 | 12.85904 | 101.35484 | 29292 ft | 504 kts | 342° |
| 2026-05-05 06:18 | 12.89255 | 101.34447 | 28391 ft | 500 kts | 342° |
| 2026-05-05 06:19 | 12.92573 | 101.33420 | 27559 ft | 495 kts | 342° |
| 2026-05-05 06:19 | 12.95864 | 101.32402 | 26709 ft | 491 kts | 342° |
| 2026-05-05 06:19 | 12.99124 | 101.31392 | 25905 ft | 488 kts | 342° |
| 2026-05-05 06:19 | 13.02361 | 101.30387 | 25072 ft | 484 kts | 342° |
| 2026-05-05 06:20 | 13.05538 | 101.29401 | 24273 ft | 481 kts | 342° |
| 2026-05-05 06:20 | 13.08733 | 101.28408 | 23584 ft | 476 kts | 342° |
| 2026-05-05 06:20 | 13.11873 | 101.27432 | 22875 ft | 466 kts | 342° |
| 2026-05-05 06:20 | 13.14948 | 101.26476 | 22102 ft | 458 kts | 343° |
| 2026-05-05 06:21 | 13.18005 | 101.25525 | 21027 ft | 459 kts | 343° |
| 2026-05-05 06:21 | 13.21042 | 101.24580 | 20344 ft | 451 kts | 343° |
| 2026-05-05 06:21 | 13.24024 | 101.23652 | 19759 ft | 441 kts | 343° |
| 2026-05-05 06:21 | 13.26938 | 101.22745 | 19194 ft | 433 kts | 343° |
| 2026-05-05 06:22 | 13.29792 | 101.21857 | 18811 ft | 421 kts | 343° |
| 2026-05-05 06:22 | 13.32375 | 101.20770 | 18587 ft | 398 kts | 328° |
| 2026-05-05 06:22 | 13.34414 | 101.18918 | 18363 ft | 387 kts | 309° |
| 2026-05-05 06:22 | 13.35878 | 101.16638 | 18114 ft | 378 kts | 297° |
| 2026-05-05 06:23 | 13.36800 | 101.14143 | 17668 ft | 370 kts | 284° |
| 2026-05-05 06:23 | 13.37340 | 101.11558 | 17043 ft | 371 kts | 282° |
| 2026-05-05 06:23 | 13.37843 | 101.08952 | 16513 ft | 371 kts | 281° |
| 2026-05-05 06:23 | 13.38343 | 101.06378 | 16156 ft | 366 kts | 282° |
| 2026-05-05 06:24 | 13.38855 | 101.03823 | 15815 ft | 364 kts | 282° |
| 2026-05-05 06:24 | 13.39370 | 101.01309 | 15477 ft | 364 kts | 282° |
| 2026-05-05 06:24 | 13.39899 | 100.98765 | 15158 ft | 364 kts | 282° |
| 2026-05-05 06:24 | 13.40432 | 100.96220 | 14827 ft | 363 kts | 282° |
| 2026-05-05 06:25 | 13.40964 | 100.93686 | 14493 ft | 363 kts | 282° |
| 2026-05-05 06:25 | 13.41586 | 100.91208 | 14151 ft | 354 kts | 293° |
| 2026-05-05 06:25 | 13.42918 | 100.89106 | 13842 ft | 354 kts | 315° |
| 2026-05-05 06:25 | 13.44861 | 100.87554 | 13510 ft | 356 kts | 329° |
| 2026-05-05 06:26 | 13.46981 | 100.86225 | 13160 ft | 356 kts | 329° |
| 2026-05-05 06:26 | 13.49050 | 100.84903 | 12826 ft | 353 kts | 329° |
| 2026-05-05 06:26 | 13.51122 | 100.83557 | 12487 ft | 351 kts | 328° |
| 2026-05-05 06:26 | 13.53177 | 100.82229 | 12194 ft | 342 kts | 331° |
| 2026-05-05 06:27 | 13.55383 | 100.81440 | 11893 ft | 338 kts | 354° |
| 2026-05-05 06:27 | 13.60026 | 100.82184 | 11327 ft | 340 kts | 17° |
| 2026-05-05 06:27 | 13.62302 | 100.82839 | 11034 ft | 338 kts | 17° |
| 2026-05-05 06:28 | 13.64549 | 100.83475 | 10733 ft | 332 kts | 16° |
| 2026-05-05 06:28 | 13.66756 | 100.84085 | 10452 ft | 325 kts | 16° |
| 2026-05-05 06:28 | 13.68890 | 100.84672 | 10209 ft | 318 kts | 16° |
| 2026-05-05 06:28 | 13.70996 | 100.85250 | 9973 ft | 311 kts | 16° |
| 2026-05-05 06:29 | 13.73057 | 100.85815 | 9789 ft | 302 kts | 16° |
| 2026-05-05 06:29 | 13.75055 | 100.86363 | 9674 ft | 292 kts | 16° |
| 2026-05-05 06:29 | 13.76987 | 100.86893 | 9499 ft | 284 kts | 16° |
| 2026-05-05 06:29 | 13.78886 | 100.87413 | 9239 ft | 280 kts | 16° |
| 2026-05-05 06:30 | 13.80783 | 100.87935 | 8752 ft | 284 kts | 16° |
| 2026-05-05 06:30 | 13.82691 | 100.88458 | 8433 ft | 282 kts | 16° |
| 2026-05-05 06:30 | 13.84570 | 100.88974 | 8176 ft | 277 kts | 16° |
| 2026-05-05 06:30 | 13.86392 | 100.89471 | 7952 ft | 272 kts | 16° |
| 2026-05-05 06:31 | 13.88204 | 100.89967 | 7715 ft | 267 kts | 16° |
| 2026-05-05 06:31 | 13.89986 | 100.90455 | 7489 ft | 263 kts | 16° |
| 2026-05-05 06:31 | 13.91736 | 100.90934 | 7273 ft | 258 kts | 16° |
| 2026-05-05 06:31 | 13.93459 | 100.91408 | 7055 ft | 254 kts | 16° |
| 2026-05-05 06:32 | 13.95157 | 100.91875 | 6835 ft | 251 kts | 16° |
| 2026-05-05 06:32 | 13.96838 | 100.92337 | 6649 ft | 248 kts | 16° |
| 2026-05-05 06:32 | 13.98505 | 100.92794 | 6481 ft | 248 kts | 16° |
| 2026-05-05 06:32 | 13.99614 | 100.93099 | 6354 ft | 249 kts | 16° |
| 2026-05-05 06:33 | 14.01301 | 100.93461 | 6097 ft | 249 kts | 2° |
| 2026-05-05 06:33 | 14.03460 | 100.92713 | 5811 ft | 252 kts | 321° |
| 2026-05-05 06:33 | 14.04487 | 100.91284 | 5662 ft | 248 kts | 292° |
| 2026-05-05 06:33 | 14.04869 | 100.90147 | 5504 ft | 250 kts | 286° |
| 2026-05-05 06:34 | 14.05320 | 100.88444 | 5320 ft | 247 kts | 282° |
| 2026-05-05 06:34 | 14.05309 | 100.86689 | 5055 ft | 247 kts | 252° |
| 2026-05-05 06:34 | 14.04443 | 100.85209 | 5012 ft | 242 kts | 225° |
| 2026-05-05 06:34 | 14.03202 | 100.84011 | 4965 ft | 245 kts | 220° |
| 2026-05-05 06:35 | 14.01914 | 100.82862 | 4965 ft | 244 kts | 219° |
| 2026-05-05 06:35 | 14.00475 | 100.81959 | 4788 ft | 247 kts | 200° |
| 2026-05-05 06:35 | 13.98837 | 100.81420 | 4506 ft | 245 kts | 194° |
| 2026-05-05 06:35 | 13.97202 | 100.80979 | 4263 ft | 241 kts | 193° |
| 2026-05-05 06:36 | 13.95594 | 100.80560 | 4039 ft | 235 kts | 193° |
| 2026-05-05 06:36 | 13.94026 | 100.80153 | 3827 ft | 230 kts | 193° |
| 2026-05-05 06:36 | 13.92489 | 100.79752 | 3620 ft | 225 kts | 193° |
| 2026-05-05 06:36 | 13.91028 | 100.79411 | 3543 ft | 212 kts | 186° |
| 2026-05-05 06:37 | 13.89572 | 100.79317 | 3303 ft | 208 kts | 185° |
| 2026-05-05 06:37 | 13.88151 | 100.79030 | 3049 ft | 207 kts | 193° |
| 2026-05-05 06:37 | 13.86783 | 100.78663 | 2847 ft | 200 kts | 194° |
| 2026-05-05 06:37 | 13.85458 | 100.78307 | 2630 ft | 193 kts | 194° |
| 2026-05-05 06:38 | 13.84184 | 100.77968 | 2423 ft | 185 kts | 193° |
| 2026-05-05 06:38 | 13.82963 | 100.77645 | 2251 ft | 178 kts | 193° |
| 2026-05-05 06:38 | 13.81765 | 100.77329 | 2062 ft | 172 kts | 194° |
| 2026-05-05 06:38 | 13.80665 | 100.77038 | 1885 ft | 153 kts | 193° |
| 2026-05-05 06:39 | 13.79680 | 100.76777 | 1752 ft | 141 kts | 193° |
| 2026-05-05 06:39 | 13.78744 | 100.76530 | 1692 ft | 139 kts | 193° |
| 2026-05-05 06:39 | 13.77807 | 100.76282 | 1516 ft | 140 kts | 193° |
| 2026-05-05 06:39 | 13.76865 | 100.76033 | 1331 ft | 138 kts | 193° |
| 2026-05-05 06:40 | 13.75947 | 100.75790 | 1156 ft | 138 kts | 193° |
| 2026-05-05 06:40 | 13.75015 | 100.75550 | 965 ft | 137 kts | 193° |
| 2026-05-05 06:40 | 13.74087 | 100.75314 | 783 ft | 137 kts | 194° |
| 2026-05-05 06:40 | 13.73176 | 100.75053 | 596 ft | 137 kts | 193° |
| 2026-05-05 06:41 | 13.72249 | 100.74812 | 460 ft | 137 kts | 191° |
| 2026-05-05 06:41 | 13.71332 | 100.74566 | 265 ft | 135 kts | 190° |
| 2026-05-05 06:41 | 13.70425 | 100.74331 | 84 ft | 134 kts | 190° |
| 2026-05-05 06:41 | 13.69543 | 100.74101 | 17 ft | 121 kts | 190° |
| 2026-05-05 06:42 | 13.68835 | 100.73913 | 19 ft | 89 kts | 194° |
| 2026-05-05 06:42 | 13.68413 | 100.73826 | 18 ft | 45 kts | 179° |
| 2026-05-05 06:42 | 13.68233 | 100.73883 | 18 ft | 12 kts | 131° |
| 2026-05-05 06:42 | 13.68252 | 100.73954 | 18 ft | 12 kts | 20° |
| 2026-05-05 06:43 | 13.68336 | 100.73975 | 18 ft | 12 kts | 13° |
| 2026-05-05 06:43 | 13.68420 | 100.73995 | 18 ft | 12 kts | 14° |
| 2026-05-05 06:43 | 13.68488 | 100.74043 | 18 ft | 12 kts | 65° |
| 2026-05-05 06:43 | 13.68438 | 100.74095 | 18 ft | 12 kts | 178° |
| 2026-05-05 06:44 | 13.68353 | 100.74079 | 18 ft | 12 kts | 190° |
| 2026-05-05 06:44 | 13.68269 | 100.74066 | 20 ft | 12 kts | 184° |
| 2026-05-05 06:44 | 13.68211 | 100.74118 | 18 ft | 12 kts | 104° |
| 2026-05-05 06:44 | 13.68189 | 100.74204 | 18 ft | 12 kts | 104° |
| 2026-05-05 06:45 | 13.68168 | 100.74290 | 18 ft | 12 kts | 104° |
| 2026-05-05 06:45 | 13.68147 | 100.74376 | 18 ft | 12 kts | 104° |
| 2026-05-05 06:45 | 13.68126 | 100.74461 | 18 ft | 12 kts | 104° |
| 2026-05-05 06:45 | 13.68105 | 100.74547 | 18 ft | 12 kts | 104° |
| 2026-05-05 06:46 | 13.68084 | 100.74633 | 19 ft | 12 kts | 104° |
| 2026-05-05 06:46 | 13.68063 | 100.74719 | 18 ft | 12 kts | 104° |
| 2026-05-05 06:46 | 13.68041 | 100.74805 | 19 ft | 12 kts | 104° |
| 2026-05-05 06:46 | 13.68020 | 100.74890 | 18 ft | 12 kts | 104° |
| 2026-05-05 06:47 | 13.67998 | 100.74976 | 18 ft | 12 kts | 104° |
| 2026-05-05 06:47 | 13.67982 | 100.75061 | 18 ft | 12 kts | 81° |
| 2026-05-05 06:47 | 13.68046 | 100.75097 | 18 ft | 11 kts | 14° |
| 2026-05-05 06:47 | 13.68059 | 100.75100 | 18 ft | 1 kts | 14° |
| 2026-05-05 06:48 | 13.68064 | 100.75101 | 18 ft | 1 kts | 14° |
| 2026-05-05 06:48 | 13.68065 | 100.75102 | 18 ft | 0 kts | 14° |